sensor_id;sensor_type;location;lat;lon;timestamp;pressure;altitude;pressure_sealevel;temperature;humidity
72308;BME280;60257;42.638;23.376;2024-03-08T00:01:10;94669.25;;;4.80;92.33
72308;BME280;60257;42.638;23.376;2024-03-08T00:03:10;94668.34;;;4.62;93.49
72308;BME280;60257;42.638;23.376;2024-03-08T00:05:11;94667.38;;;4.67;93.71
72308;BME280;60257;42.638;23.376;2024-03-08T00:07:12;94667.38;;;4.67;94.24
72308;BME280;60257;42.638;23.376;2024-03-08T00:09:13;94670.91;;;4.67;94.91
72308;BME280;60257;42.638;23.376;2024-03-08T00:11:14;94672.03;;;4.66;95.03
72308;BME280;60257;42.638;23.376;2024-03-08T00:13:14;94670.81;;;4.72;95.03
72308;BME280;60257;42.638;23.376;2024-03-08T00:15:16;94664.69;;;4.67;95.54
72308;BME280;60257;42.638;23.376;2024-03-08T00:17:17;94654.56;;;4.58;95.55
72308;BME280;60257;42.638;23.376;2024-03-08T00:19:17;94667.59;;;4.70;95.66
72308;BME280;60257;42.638;23.376;2024-03-08T00:21:17;94658.72;;;4.56;96.08
72308;BME280;60257;42.638;23.376;2024-03-08T00:23:18;94658.88;;;4.59;96.19
72308;BME280;60257;42.638;23.376;2024-03-08T00:25:18;94660.47;;;4.60;96.07
72308;BME280;60257;42.638;23.376;2024-03-08T00:27:19;94660.28;;;4.57;96.31
72308;BME280;60257;42.638;23.376;2024-03-08T00:29:21;94652.78;;;4.54;96.37
72308;BME280;60257;42.638;23.376;2024-03-08T00:31:22;94658.28;;;4.62;95.94
72308;BME280;60257;42.638;23.376;2024-03-08T00:33:22;94657.56;;;4.57;94.65
72308;BME280;60257;42.638;23.376;2024-03-08T00:35:23;94653.09;;;4.52;95.20
72308;BME280;60257;42.638;23.376;2024-03-08T00:37:23;94649.06;;;4.50;95.46
72308;BME280;60257;42.638;23.376;2024-03-08T00:39:24;94654.09;;;4.56;95.83
72308;BME280;60257;42.638;23.376;2024-03-08T00:41:25;94647.41;;;4.62;95.16
72308;BME280;60257;42.638;23.376;2024-03-08T00:43:26;94650.94;;;4.63;95.24
72308;BME280;60257;42.638;23.376;2024-03-08T00:45:26;94646.41;;;4.58;95.15
72308;BME280;60257;42.638;23.376;2024-03-08T00:47:27;94637.66;;;4.61;95.22
72308;BME280;60257;42.638;23.376;2024-03-08T00:49:27;94640.22;;;4.67;94.65
72308;BME280;60257;42.638;23.376;2024-03-08T00:51:27;94632.22;;;4.61;94.97
72308;BME280;60257;42.638;23.376;2024-03-08T00:53:28;94628.84;;;4.56;95.78
72308;BME280;60257;42.638;23.376;2024-03-08T00:55:28;94635.31;;;4.46;96.53
72308;BME280;60257;42.638;23.376;2024-03-08T00:57:29;94635.13;;;4.43;96.36
72308;BME280;60257;42.638;23.376;2024-03-08T00:59:30;94627.59;;;4.40;96.78
72308;BME280;60257;42.638;23.376;2024-03-08T01:01:33;94625.88;;;4.44;96.66
72308;BME280;60257;42.638;23.376;2024-03-08T01:03:33;94627.91;;;4.38;97.28
72308;BME280;60257;42.638;23.376;2024-03-08T01:05:34;94625.31;;;4.33;96.89
72308;BME280;60257;42.638;23.376;2024-03-08T01:07:35;94625.72;;;4.26;98.40
72308;BME280;60257;42.638;23.376;2024-03-08T01:09:35;94625.44;;;4.28;98.13
72308;BME280;60257;42.638;23.376;2024-03-08T01:11:36;94623.03;;;4.26;97.69
72308;BME280;60257;42.638;23.376;2024-03-08T01:13:36;94620.66;;;4.34;97.20
72308;BME280;60257;42.638;23.376;2024-03-08T01:15:36;94617.56;;;4.40;96.87
72308;BME280;60257;42.638;23.376;2024-03-08T01:17:37;94617.06;;;4.38;96.82
72308;BME280;60257;42.638;23.376;2024-03-08T01:19:37;94611.84;;;4.28;97.71
72308;BME280;60257;42.638;23.376;2024-03-08T01:21:38;94617.78;;;4.30;97.72
72308;BME280;60257;42.638;23.376;2024-03-08T01:23:39;94612.22;;;4.35;98.18
72308;BME280;60257;42.638;23.376;2024-03-08T01:25:39;94610.38;;;4.22;97.67
72308;BME280;60257;42.638;23.376;2024-03-08T01:27:41;94611.78;;;4.19;97.52
72308;BME280;60257;42.638;23.376;2024-03-08T01:29:41;94603.34;;;4.21;97.61
72308;BME280;60257;42.638;23.376;2024-03-08T01:31:42;94605.63;;;4.28;97.56
72308;BME280;60257;42.638;23.376;2024-03-08T01:33:42;94603.09;;;4.31;97.08
72308;BME280;60257;42.638;23.376;2024-03-08T01:35:43;94598.59;;;4.26;96.79
72308;BME280;60257;42.638;23.376;2024-03-08T01:37:43;94606.00;;;4.35;96.62
72308;BME280;60257;42.638;23.376;2024-03-08T01:39:43;94605.03;;;4.31;96.73
72308;BME280;60257;42.638;23.376;2024-03-08T01:41:44;94602.31;;;4.31;96.34
72308;BME280;60257;42.638;23.376;2024-03-08T01:43:44;94610.81;;;4.38;96.28
72308;BME280;60257;42.638;23.376;2024-03-08T01:45:45;94611.06;;;4.28;96.30
72308;BME280;60257;42.638;23.376;2024-03-08T01:47:46;94608.59;;;4.17;95.63
72308;BME280;60257;42.638;23.376;2024-03-08T01:49:49;94611.19;;;4.22;96.07
72308;BME280;60257;42.638;23.376;2024-03-08T01:51:50;94612.16;;;4.26;96.33
72308;BME280;60257;42.638;23.376;2024-03-08T01:53:50;94609.78;;;4.25;96.79
72308;BME280;60257;42.638;23.376;2024-03-08T01:55:54;94608.09;;;4.15;96.98
72308;BME280;60257;42.638;23.376;2024-03-08T01:57:56;94602.84;;;4.19;96.55
72308;BME280;60257;42.638;23.376;2024-03-08T01:59:57;94603.72;;;4.28;95.72
72308;BME280;60257;42.638;23.376;2024-03-08T02:02:01;94605.94;;;4.26;95.50
72308;BME280;60257;42.638;23.376;2024-03-08T02:04:02;94607.88;;;4.25;94.24
72308;BME280;60257;42.638;23.376;2024-03-08T02:06:02;94602.75;;;4.24;94.07
72308;BME280;60257;42.638;23.376;2024-03-08T02:08:03;94598.78;;;4.30;93.86
72308;BME280;60257;42.638;23.376;2024-03-08T02:10:06;94602.16;;;4.36;93.55
72308;BME280;60257;42.638;23.376;2024-03-08T02:12:07;94601.50;;;4.30;93.20
72308;BME280;60257;42.638;23.376;2024-03-08T02:14:08;94602.09;;;4.27;93.14
72308;BME280;60257;42.638;23.376;2024-03-08T02:16:09;94603.91;;;4.32;92.89
72308;BME280;60257;42.638;23.376;2024-03-08T02:18:10;94598.28;;;4.28;92.79
72308;BME280;60257;42.638;23.376;2024-03-08T02:20:10;94601.00;;;4.28;93.04
72308;BME280;60257;42.638;23.376;2024-03-08T02:22:13;94600.41;;;4.31;93.10
72308;BME280;60257;42.638;23.376;2024-03-08T02:24:14;94600.41;;;4.31;93.18
72308;BME280;60257;42.638;23.376;2024-03-08T02:26:14;94607.53;;;4.27;93.24
72308;BME280;60257;42.638;23.376;2024-03-08T02:28:15;94607.22;;;4.29;92.96
72308;BME280;60257;42.638;23.376;2024-03-08T02:30:15;94609.34;;;4.32;92.91
72308;BME280;60257;42.638;23.376;2024-03-08T02:32:17;94607.00;;;4.39;92.67
72308;BME280;60257;42.638;23.376;2024-03-08T02:34:18;94611.00;;;4.41;92.20
72308;BME280;60257;42.638;23.376;2024-03-08T02:36:18;94596.63;;;4.41;91.52
72308;BME280;60257;42.638;23.376;2024-03-08T02:38:21;94614.41;;;4.47;91.40
72308;BME280;60257;42.638;23.376;2024-03-08T02:40:22;94612.47;;;4.47;91.12
72308;BME280;60257;42.638;23.376;2024-03-08T02:42:23;94612.28;;;4.44;92.36
72308;BME280;60257;42.638;23.376;2024-03-08T02:44:23;94618.53;;;4.44;92.11
72308;BME280;60257;42.638;23.376;2024-03-08T02:46:23;94612.19;;;4.49;92.23
72308;BME280;60257;42.638;23.376;2024-03-08T02:48:24;94622.09;;;4.53;92.71
72308;BME280;60257;42.638;23.376;2024-03-08T02:50:25;94627.03;;;4.51;91.76
72308;BME280;60257;42.638;23.376;2024-03-08T02:52:26;94621.75;;;4.46;91.12
72308;BME280;60257;42.638;23.376;2024-03-08T02:54:26;94613.66;;;4.55;91.04
72308;BME280;60257;42.638;23.376;2024-03-08T02:56:26;94613.47;;;4.51;90.57
72308;BME280;60257;42.638;23.376;2024-03-08T02:58:27;94620.94;;;4.46;90.12
72308;BME280;60257;42.638;23.376;2024-03-08T03:00:27;94615.31;;;4.42;90.81
72308;BME280;60257;42.638;23.376;2024-03-08T03:02:27;94613.59;;;4.46;91.10
72308;BME280;60257;42.638;23.376;2024-03-08T03:04:28;94622.91;;;4.54;91.97
72308;BME280;60257;42.638;23.376;2024-03-08T03:06:28;94623.72;;;4.54;92.24
72308;BME280;60257;42.638;23.376;2024-03-08T03:08:28;94628.50;;;4.57;91.83
72308;BME280;60257;42.638;23.376;2024-03-08T03:10:29;94632.81;;;4.58;91.65
72308;BME280;60257;42.638;23.376;2024-03-08T03:12:30;94623.56;;;4.59;91.54
72308;BME280;60257;42.638;23.376;2024-03-08T03:14:31;94633.31;;;4.60;91.93
72308;BME280;60257;42.638;23.376;2024-03-08T03:16:31;94629.19;;;4.63;91.99
72308;BME280;60257;42.638;23.376;2024-03-08T03:18:31;94629.38;;;4.67;92.21
72308;BME280;60257;42.638;23.376;2024-03-08T03:20:33;94629.38;;;4.67;92.02
72308;BME280;60257;42.638;23.376;2024-03-08T03:22:33;94625.84;;;4.66;91.70
72308;BME280;60257;42.638;23.376;2024-03-08T03:24:35;94624.72;;;4.67;91.02
72308;BME280;60257;42.638;23.376;2024-03-08T03:26:38;94628.25;;;4.68;91.35
72308;BME280;60257;42.638;23.376;2024-03-08T03:28:39;94623.78;;;4.63;91.54
72308;BME280;60257;42.638;23.376;2024-03-08T03:30:39;94630.00;;;4.63;91.40
72308;BME280;60257;42.638;23.376;2024-03-08T03:32:40;94637.03;;;4.64;91.29
72308;BME280;60257;42.638;23.376;2024-03-08T03:34:47;94639.44;;;4.66;91.77
72308;BME280;60257;42.638;23.376;2024-03-08T03:36:47;94640.22;;;4.67;91.09
72308;BME280;60257;42.638;23.376;2024-03-08T03:38:48;94643.47;;;4.46;88.72
72308;BME280;60257;42.638;23.376;2024-03-08T03:40:49;94636.72;;;4.44;86.54
72308;BME280;60257;42.638;23.376;2024-03-08T03:42:52;94646.03;;;4.29;86.68
72308;BME280;60257;42.638;23.376;2024-03-08T03:44:52;94644.75;;;4.26;86.30
72308;BME280;60257;42.638;23.376;2024-03-08T03:46:53;94649.44;;;4.35;85.44
72308;BME280;60257;42.638;23.376;2024-03-08T03:48:54;94653.59;;;4.32;84.77
72308;BME280;60257;42.638;23.376;2024-03-08T03:50:55;94646.66;;;4.26;83.68
72308;BME280;60257;42.638;23.376;2024-03-08T03:52:55;94650.78;;;4.23;83.47
72308;BME280;60257;42.638;23.376;2024-03-08T03:55:15;94655.41;;;4.23;83.35
72308;BME280;60257;42.638;23.376;2024-03-08T03:57:15;94657.94;;;4.19;83.96
72308;BME280;60257;42.638;23.376;2024-03-08T03:59:15;94654.63;;;4.22;83.55
72308;BME280;60257;42.638;23.376;2024-03-08T04:01:17;94657.63;;;4.21;83.27
72308;BME280;60257;42.638;23.376;2024-03-08T04:03:17;94664.47;;;4.18;82.82
72308;BME280;60257;42.638;23.376;2024-03-08T04:05:17;94650.72;;;4.15;82.31
72308;BME280;60257;42.638;23.376;2024-03-08T04:07:18;94653.06;;;4.08;81.78
72308;BME280;60257;42.638;23.376;2024-03-08T04:09:18;94659.72;;;4.02;82.09
72308;BME280;60257;42.638;23.376;2024-03-08T04:11:19;94669.53;;;4.11;81.86
72308;BME280;60257;42.638;23.376;2024-03-08T04:13:19;94669.84;;;4.10;81.83
72308;BME280;60257;42.638;23.376;2024-03-08T04:15:20;94666.63;;;4.08;82.10
72308;BME280;60257;42.638;23.376;2024-03-08T04:17:21;94671.25;;;4.07;82.22
72308;BME280;60257;42.638;23.376;2024-03-08T04:19:22;94676.84;;;4.11;82.08
72308;BME280;60257;42.638;23.376;2024-03-08T04:21:22;94669.34;;;4.08;81.50
72308;BME280;60257;42.638;23.376;2024-03-08T04:23:23;94679.28;;;4.12;81.76
72308;BME280;60257;42.638;23.376;2024-03-08T04:25:23;94675.28;;;4.10;81.37
72308;BME280;60257;42.638;23.376;2024-03-08T04:27:23;94677.88;;;4.15;81.82
72308;BME280;60257;42.638;23.376;2024-03-08T04:29:24;94684.28;;;4.19;82.30
72308;BME280;60257;42.638;23.376;2024-03-08T04:31:24;94681.75;;;4.22;81.77
72308;BME280;60257;42.638;23.376;2024-03-08T04:33:27;94690.03;;;4.17;81.66
72308;BME280;60257;42.638;23.376;2024-03-08T04:35:27;94683.41;;;4.10;81.74
72308;BME280;60257;42.638;23.376;2024-03-08T04:37:27;94692.25;;;4.15;82.01
72308;BME280;60257;42.638;23.376;2024-03-08T04:39:30;94691.56;;;4.10;82.08
72308;BME280;60257;42.638;23.376;2024-03-08T04:41:31;94693.13;;;4.11;82.37
72308;BME280;60257;42.638;23.376;2024-03-08T04:43:34;94689.03;;;4.13;83.02
72308;BME280;60257;42.638;23.376;2024-03-08T04:45:34;94693.22;;;4.19;83.04
72308;BME280;60257;42.638;23.376;2024-03-08T04:47:35;94703.19;;;4.24;82.70
72308;BME280;60257;42.638;23.376;2024-03-08T04:49:37;94689.09;;;4.22;82.08
72308;BME280;60257;42.638;23.376;2024-03-08T04:51:37;94698.56;;;4.24;81.88
72308;BME280;60257;42.638;23.376;2024-03-08T04:53:37;94693.94;;;4.25;81.63
72308;BME280;60257;42.638;23.376;2024-03-08T04:55:38;94701.88;;;4.21;81.70
72308;BME280;60257;42.638;23.376;2024-03-08T04:57:39;94707.81;;;4.23;81.36
72308;BME280;60257;42.638;23.376;2024-03-08T04:59:39;94708.59;;;4.24;81.76
72308;BME280;60257;42.638;23.376;2024-03-08T05:01:40;94702.53;;;4.27;81.64
72308;BME280;60257;42.638;23.376;2024-03-08T05:03:40;94707.38;;;4.30;81.80
72308;BME280;60257;42.638;23.376;2024-03-08T05:05:41;94709.41;;;4.24;80.71
72308;BME280;60257;42.638;23.376;2024-03-08T05:07:41;94719.75;;;4.22;82.49
72308;BME280;60257;42.638;23.376;2024-03-08T05:09:43;94714.34;;;4.22;83.59
72308;BME280;60257;42.638;23.376;2024-03-08T05:11:51;94717.72;;;4.28;84.61
72308;BME280;60257;42.638;23.376;2024-03-08T05:13:51;94709.19;;;4.21;83.67
72308;BME280;60257;42.638;23.376;2024-03-08T05:15:52;94719.56;;;4.19;83.26
72308;BME280;60257;42.638;23.376;2024-03-08T05:17:52;94716.53;;;4.20;83.95
72308;BME280;60257;42.638;23.376;2024-03-08T05:19:52;94718.97;;;4.22;83.45
72308;BME280;60257;42.638;23.376;2024-03-08T05:21:53;94726.50;;;4.25;84.23
72308;BME280;60257;42.638;23.376;2024-03-08T05:23:54;94725.06;;;4.28;84.68
72308;BME280;60257;42.638;23.376;2024-03-08T05:25:54;94729.38;;;4.29;83.41
72308;BME280;60257;42.638;23.376;2024-03-08T05:27:55;94729.91;;;4.31;84.05
72308;BME280;60257;42.638;23.376;2024-03-08T05:29:55;94718.84;;;4.27;84.38
72308;BME280;60257;42.638;23.376;2024-03-08T05:31:56;94736.63;;;4.33;84.28
72308;BME280;60257;42.638;23.376;2024-03-08T05:33:57;94740.56;;;4.27;85.21
72308;BME280;60257;42.638;23.376;2024-03-08T05:35:58;94739.94;;;4.30;85.73
72308;BME280;60257;42.638;23.376;2024-03-08T05:37:59;94749.19;;;4.29;85.81
72308;BME280;60257;42.638;23.376;2024-03-08T05:39:59;94749.13;;;4.20;86.38
72308;BME280;60257;42.638;23.376;2024-03-08T05:42:00;94744.69;;;4.11;86.97
72308;BME280;60257;42.638;23.376;2024-03-08T05:44:00;94756.78;;;4.05;86.94
72308;BME280;60257;42.638;23.376;2024-03-08T05:46:01;94754.19;;;4.00;87.18
72308;BME280;60257;42.638;23.376;2024-03-08T05:48:01;94756.81;;;3.91;86.94
72308;BME280;60257;42.638;23.376;2024-03-08T05:50:01;94764.34;;;3.94;86.56
72308;BME280;60257;42.638;23.376;2024-03-08T05:52:02;94759.41;;;3.96;86.68
72308;BME280;60257;42.638;23.376;2024-03-08T05:54:12;94770.75;;;3.98;85.93
72308;BME280;60257;42.638;23.376;2024-03-08T05:56:12;94772.16;;;3.82;86.32
72308;BME280;60257;42.638;23.376;2024-03-08T05:58:12;94773.66;;;3.88;86.23
72308;BME280;60257;42.638;23.376;2024-03-08T06:00:13;94781.31;;;3.86;86.03
72308;BME280;60257;42.638;23.376;2024-03-08T06:02:15;94783.31;;;3.80;86.28
72308;BME280;60257;42.638;23.376;2024-03-08T06:04:19;94782.84;;;3.78;86.35
72308;BME280;60257;42.638;23.376;2024-03-08T06:06:19;94780.00;;;3.83;86.45
72308;BME280;60257;42.638;23.376;2024-03-08T06:08:21;94777.31;;;3.83;86.08
72308;BME280;60257;42.638;23.376;2024-03-08T06:10:22;94787.63;;;3.81;86.21
72308;BME280;60257;42.638;23.376;2024-03-08T06:12:22;94777.31;;;3.83;86.32
72308;BME280;60257;42.638;23.376;2024-03-08T06:14:24;94792.56;;;3.93;86.15
72308;BME280;60257;42.638;23.376;2024-03-08T06:16:24;94793.88;;;3.96;85.64
72308;BME280;60257;42.638;23.376;2024-03-08T06:18:24;94794.88;;;4.00;86.44
72308;BME280;60257;42.638;23.376;2024-03-08T06:20:25;94795.06;;;4.03;85.85
72308;BME280;60257;42.638;23.376;2024-03-08T06:22:26;94800.50;;;4.03;85.37
72308;BME280;60257;42.638;23.376;2024-03-08T06:24:26;94808.34;;;4.05;85.09
72308;BME280;60257;42.638;23.376;2024-03-08T06:26:27;94806.63;;;3.95;85.04
72308;BME280;60257;42.638;23.376;2024-03-08T06:28:28;94805.91;;;4.03;83.62
72308;BME280;60257;42.638;23.376;2024-03-08T06:30:29;94806.03;;;3.98;84.19
72308;BME280;60257;42.638;23.376;2024-03-08T06:32:29;94808.25;;;3.82;85.34
72308;BME280;60257;42.638;23.376;2024-03-08T06:34:32;94803.22;;;3.76;85.17
72308;BME280;60257;42.638;23.376;2024-03-08T06:36:34;94811.66;;;3.74;85.18
72308;BME280;60257;42.638;23.376;2024-03-08T06:38:35;94811.75;;;3.83;85.26
72308;BME280;60257;42.638;23.376;2024-03-08T06:40:35;94814.97;;;3.85;84.99
72308;BME280;60257;42.638;23.376;2024-03-08T06:42:35;94810.25;;;3.91;85.42
72308;BME280;60257;42.638;23.376;2024-03-08T06:44:36;94814.28;;;3.93;85.08
72308;BME280;60257;42.638;23.376;2024-03-08T06:46:38;94819.00;;;4.01;85.21
72308;BME280;60257;42.638;23.376;2024-03-08T06:48:39;94814.56;;;4.05;84.17
72308;BME280;60257;42.638;23.376;2024-03-08T06:50:39;94808.03;;;4.06;83.76
72308;BME280;60257;42.638;23.376;2024-03-08T06:52:40;94813.47;;;4.06;84.03
72308;BME280;60257;42.638;23.376;2024-03-08T06:54:40;94817.38;;;4.14;84.45
72308;BME280;60257;42.638;23.376;2024-03-08T06:56:41;94818.59;;;4.08;84.41
72308;BME280;60257;42.638;23.376;2024-03-08T06:58:41;94822.41;;;4.20;83.19
72308;BME280;60257;42.638;23.376;2024-03-08T07:00:42;94825.50;;;4.28;82.80
72308;BME280;60257;42.638;23.376;2024-03-08T07:02:42;94829.25;;;4.32;83.01
72308;BME280;60257;42.638;23.376;2024-03-08T07:04:45;94821.56;;;4.34;82.98
72308;BME280;60257;42.638;23.376;2024-03-08T07:06:46;94825.09;;;4.34;82.30
72308;BME280;60257;42.638;23.376;2024-03-08T07:08:47;94828.31;;;4.36;82.10
72308;BME280;60257;42.638;23.376;2024-03-08T07:10:48;94827.22;;;4.37;82.71
72308;BME280;60257;42.638;23.376;2024-03-08T07:12:49;94816.22;;;4.42;82.12
72308;BME280;60257;42.638;23.376;2024-03-08T07:14:50;94827.38;;;4.54;81.42
72308;BME280;60257;42.638;23.376;2024-03-08T07:16:50;94821.34;;;4.57;80.91
72308;BME280;60257;42.638;23.376;2024-03-08T07:18:51;94824.88;;;4.44;81.07
72308;BME280;60257;42.638;23.376;2024-03-08T07:20:52;94826.50;;;4.45;80.46
72308;BME280;60257;42.638;23.376;2024-03-08T07:22:53;94830.19;;;4.49;80.18
72308;BME280;60257;42.638;23.376;2024-03-08T07:24:54;94830.53;;;4.48;79.81
72308;BME280;60257;42.638;23.376;2024-03-08T07:26:57;94824.38;;;4.56;80.38
72308;BME280;60257;42.638;23.376;2024-03-08T07:28:58;94823.84;;;4.68;80.03
72308;BME280;60257;42.638;23.376;2024-03-08T07:31:00;94831.69;;;4.69;79.40
72308;BME280;60257;42.638;23.376;2024-03-08T07:33:27;94833.78;;;4.72;78.24
72308;BME280;60257;42.638;23.376;2024-03-08T07:35:28;94822.22;;;4.67;78.72
72308;BME280;60257;42.638;23.376;2024-03-08T07:37:29;94827.56;;;4.72;77.07
72308;BME280;60257;42.638;23.376;2024-03-08T07:39:29;94831.84;;;4.86;76.99
72308;BME280;60257;42.638;23.376;2024-03-08T07:41:29;94834.94;;;4.93;76.55
72308;BME280;60257;42.638;23.376;2024-03-08T07:43:30;94836.19;;;5.10;76.84
72308;BME280;60257;42.638;23.376;2024-03-08T07:45:30;94833.47;;;5.10;75.87
72308;BME280;60257;42.638;23.376;2024-03-08T07:47:30;94830.00;;;5.18;74.17
72308;BME280;60257;42.638;23.376;2024-03-08T07:49:33;94837.66;;;5.16;74.74
72308;BME280;60257;42.638;23.376;2024-03-08T07:51:34;94840.94;;;5.26;73.75
72308;BME280;60257;42.638;23.376;2024-03-08T07:53:35;94837.28;;;5.31;73.59
72308;BME280;60257;42.638;23.376;2024-03-08T07:55:36;94833.47;;;5.32;73.50
72308;BME280;60257;42.638;23.376;2024-03-08T07:57:39;94838.47;;;5.38;72.48
72308;BME280;60257;42.638;23.376;2024-03-08T07:59:47;94841.75;;;5.49;73.92
72308;BME280;60257;42.638;23.376;2024-03-08T08:01:48;94835.97;;;5.51;73.21
72308;BME280;60257;42.638;23.376;2024-03-08T08:03:48;94837.13;;;5.58;73.55
72308;BME280;60257;42.638;23.376;2024-03-08T08:05:48;94837.13;;;5.58;73.12
72308;BME280;60257;42.638;23.376;2024-03-08T08:07:49;94840.19;;;5.57;73.90
72308;BME280;60257;42.638;23.376;2024-03-08T08:09:50;94835.56;;;5.66;73.79
72308;BME280;60257;42.638;23.376;2024-03-08T08:11:50;94834.38;;;5.50;74.82
72308;BME280;60257;42.638;23.376;2024-03-08T08:13:50;94838.69;;;5.06;74.39
72308;BME280;60257;42.638;23.376;2024-03-08T08:15:51;94837.06;;;5.41;74.58
72308;BME280;60257;42.638;23.376;2024-03-08T08:17:51;94841.22;;;5.69;74.12
72308;BME280;60257;42.638;23.376;2024-03-08T08:19:54;94828.81;;;5.86;72.91
72308;BME280;60257;42.638;23.376;2024-03-08T08:21:54;94834.16;;;5.91;72.52
72308;BME280;60257;42.638;23.376;2024-03-08T08:23:55;94832.06;;;5.96;73.05
72308;BME280;60257;42.638;23.376;2024-03-08T08:25:56;94831.50;;;6.08;72.92
72308;BME280;60257;42.638;23.376;2024-03-08T08:27:56;94832.47;;;6.12;73.08
72308;BME280;60257;42.638;23.376;2024-03-08T08:29:57;94830.03;;;6.02;72.38
72308;BME280;60257;42.638;23.376;2024-03-08T08:32:00;94832.25;;;5.69;74.42
72308;BME280;60257;42.638;23.376;2024-03-08T08:34:00;94825.94;;;5.60;74.25
72308;BME280;60257;42.638;23.376;2024-03-08T08:36:03;94837.91;;;5.81;73.31
72308;BME280;60257;42.638;23.376;2024-03-08T08:38:06;94837.22;;;5.98;72.81
72308;BME280;60257;42.638;23.376;2024-03-08T08:40:10;94837.91;;;6.12;72.86
72308;BME280;60257;42.638;23.376;2024-03-08T08:42:14;94840.69;;;5.90;71.41
72308;BME280;60257;42.638;23.376;2024-03-08T08:44:14;94838.81;;;5.68;72.61
72308;BME280;60257;42.638;23.376;2024-03-08T08:46:18;94831.31;;;5.96;72.70
72308;BME280;60257;42.638;23.376;2024-03-08T08:48:18;94829.63;;;5.86;72.74
72308;BME280;60257;42.638;23.376;2024-03-08T08:50:19;94826.63;;;5.96;72.67
72308;BME280;60257;42.638;23.376;2024-03-08T08:52:23;94825.75;;;6.09;72.34
72308;BME280;60257;42.638;23.376;2024-03-08T08:54:23;94818.25;;;6.24;70.59
72308;BME280;60257;42.638;23.376;2024-03-08T08:56:25;94820.81;;;6.20;70.84
72308;BME280;60257;42.638;23.376;2024-03-08T08:58:26;94826.59;;;6.27;70.35
72308;BME280;60257;42.638;23.376;2024-03-08T09:00:26;94828.22;;;6.37;70.16
72308;BME280;60257;42.638;23.376;2024-03-08T09:02:27;94821.84;;;6.41;69.84
72308;BME280;60257;42.638;23.376;2024-03-08T09:04:27;94824.41;;;6.46;70.01
72308;BME280;60257;42.638;23.376;2024-03-08T09:06:29;94824.13;;;6.56;70.55
72308;BME280;60257;42.638;23.376;2024-03-08T09:08:30;94827.03;;;6.69;69.46
72308;BME280;60257;42.638;23.376;2024-03-08T09:10:30;94830.97;;;5.97;70.73
72308;BME280;60257;42.638;23.376;2024-03-08T09:12:30;94825.94;;;6.22;71.84
72308;BME280;60257;42.638;23.376;2024-03-08T09:14:32;94819.16;;;6.50;70.44
72308;BME280;60257;42.638;23.376;2024-03-08T09:16:33;94819.78;;;6.47;69.46
72308;BME280;60257;42.638;23.376;2024-03-08T09:18:33;94816.59;;;6.62;68.51
72308;BME280;60257;42.638;23.376;2024-03-08T09:20:33;94823.78;;;6.49;69.88
72308;BME280;60257;42.638;23.376;2024-03-08T09:22:34;94823.66;;;6.63;68.79
72308;BME280;60257;42.638;23.376;2024-03-08T09:24:35;94819.34;;;6.71;69.03
72308;BME280;60257;42.638;23.376;2024-03-08T09:26:35;94815.06;;;6.30;68.19
72308;BME280;60257;42.638;23.376;2024-03-08T09:28:35;94828.28;;;6.06;69.08
72308;BME280;60257;42.638;23.376;2024-03-08T09:30:36;94819.56;;;6.26;69.14
72308;BME280;60257;42.638;23.376;2024-03-08T09:32:37;94815.63;;;6.49;69.96
72308;BME280;60257;42.638;23.376;2024-03-08T09:34:38;94803.13;;;6.74;69.32
72308;BME280;60257;42.638;23.376;2024-03-08T09:36:38;94810.84;;;6.98;68.41
72308;BME280;60257;42.638;23.376;2024-03-08T09:38:38;94802.34;;;7.17;67.02
72308;BME280;60257;42.638;23.376;2024-03-08T09:40:42;94809.72;;;7.33;65.81
72308;BME280;60257;42.638;23.376;2024-03-08T09:42:43;94808.28;;;7.10;66.25
72308;BME280;60257;42.638;23.376;2024-03-08T09:44:47;94797.56;;;6.97;65.25
72308;BME280;60257;42.638;23.376;2024-03-08T09:46:49;94806.38;;;6.93;64.48
72308;BME280;60257;42.638;23.376;2024-03-08T09:48:51;94799.78;;;7.12;62.98
72308;BME280;60257;42.638;23.376;2024-03-08T09:50:52;94805.56;;;7.27;62.32
72308;BME280;60257;42.638;23.376;2024-03-08T09:52:55;94803.94;;;7.26;63.29
72308;BME280;60257;42.638;23.376;2024-03-08T09:54:57;94804.59;;;7.32;64.47
72308;BME280;60257;42.638;23.376;2024-03-08T09:56:58;94805.81;;;7.52;63.41
72308;BME280;60257;42.638;23.376;2024-03-08T09:58:58;94806.09;;;7.67;62.90
72308;BME280;60257;42.638;23.376;2024-03-08T10:01:04;94812.44;;;7.33;63.97
72308;BME280;60257;42.638;23.376;2024-03-08T10:03:05;94801.97;;;7.53;63.12
72308;BME280;60257;42.638;23.376;2024-03-08T10:05:06;94807.88;;;7.72;63.62
72308;BME280;60257;42.638;23.376;2024-03-08T10:07:07;94800.38;;;7.52;62.79
72308;BME280;60257;42.638;23.376;2024-03-08T10:09:07;94800.78;;;7.80;61.70
72308;BME280;60257;42.638;23.376;2024-03-08T10:11:10;94808.59;;;7.90;62.44
72308;BME280;60257;42.638;23.376;2024-03-08T10:13:12;94799.13;;;7.96;61.89
72308;BME280;60257;42.638;23.376;2024-03-08T10:15:15;94806.31;;;8.09;61.59
72308;BME280;60257;42.638;23.376;2024-03-08T10:17:16;94809.03;;;8.09;61.52
72308;BME280;60257;42.638;23.376;2024-03-08T10:19:17;94802.41;;;8.19;61.34
72308;BME280;60257;42.638;23.376;2024-03-08T10:21:17;94800.88;;;8.00;61.45
72308;BME280;60257;42.638;23.376;2024-03-08T10:23:19;94812.13;;;7.35;62.68
72308;BME280;60257;42.638;23.376;2024-03-08T10:25:19;94798.94;;;7.37;63.52
72308;BME280;60257;42.638;23.376;2024-03-08T10:27:20;94802.94;;;7.57;63.70
72308;BME280;60257;42.638;23.376;2024-03-08T10:29:20;94805.16;;;7.72;62.74
72308;BME280;60257;42.638;23.376;2024-03-08T10:31:21;94794.75;;;7.65;62.92
72308;BME280;60257;42.638;23.376;2024-03-08T10:33:21;94799.44;;;7.22;64.21
72308;BME280;60257;42.638;23.376;2024-03-08T10:35:22;94799.75;;;7.20;63.80
72308;BME280;60257;42.638;23.376;2024-03-08T10:37:22;94810.72;;;7.12;64.03
72308;BME280;60257;42.638;23.376;2024-03-08T10:39:24;94800.41;;;7.34;64.37
72308;BME280;60257;42.638;23.376;2024-03-08T10:41:29;94801.13;;;7.69;63.99